Weather at Mengzi Air Base

Public forecast

Using degrees Celsius for public forecast. Weather courtesy of forecast.io.

Closest aviation weather report (METAR) to Mengzi Air Base

Closest report is Kunming Changshui International Airport, 104.8 nm (194.2 km) NNW. Retrieved 2021/01/28 02:00 UTC (11 minutes ago):

ZPPP 280200Z 05006MPS 9999 SCT016 OVC033 03/01 Q1028 NOSIG

Closest aviation forecast (TAF) to Mengzi Air Base

Closest forecast is Kunming Changshui International Airport, 104.8 nm (194.2 km) NNW. Retrieved 2021-01-28 00:02 UTC (2 hours ago):

TAF ZPPP 272108Z 2800/2824 04005MPS 9999 SCT026 TX10/2808Z TN01/2800Z